createdAt,value
2022-12-20T00:01:25.147Z,2.70
2022-12-20T00:03:53.850Z,2.80
2022-12-20T00:06:21.629Z,2.80
2022-12-20T00:08:56.752Z,2.80
2022-12-20T00:11:23.586Z,2.70
2022-12-20T00:13:50.239Z,2.70
2022-12-20T00:16:20.395Z,2.70
2022-12-20T00:18:47.645Z,2.70
2022-12-20T00:21:15.576Z,2.70
2022-12-20T00:23:42.281Z,2.70
2022-12-20T00:26:14.637Z,2.70
2022-12-20T00:28:42.296Z,2.70
2022-12-20T00:31:11.378Z,2.70
2022-12-20T00:33:39.301Z,2.70
2022-12-20T00:36:07.535Z,2.70
2022-12-20T00:38:34.377Z,2.70
2022-12-20T00:41:06.177Z,2.70
2022-12-20T00:43:34.078Z,2.70
2022-12-20T00:46:01.182Z,2.70
2022-12-20T00:48:29.340Z,2.70
2022-12-20T00:51:04.488Z,2.60
2022-12-20T00:53:31.913Z,2.60
2022-12-20T00:55:58.863Z,2.60
2022-12-20T00:58:26.714Z,2.60
2022-12-20T01:00:56.969Z,2.60
2022-12-20T01:03:24.955Z,2.50
2022-12-20T01:05:59.482Z,2.50
2022-12-20T01:08:28.090Z,2.50
2022-12-20T01:11:06.215Z,2.50
2022-12-20T01:13:34.988Z,2.50
2022-12-20T01:16:11.805Z,2.50
2022-12-20T01:18:38.562Z,2.50
2022-12-20T01:21:08.863Z,2.50
2022-12-20T01:23:36.034Z,2.40
2022-12-20T01:26:05.802Z,2.40
2022-12-20T01:28:32.831Z,2.40
2022-12-20T01:31:00.011Z,2.40
2022-12-20T01:33:26.659Z,2.50
2022-12-20T01:36:01.175Z,2.50
2022-12-20T01:38:29.177Z,2.60
2022-12-20T01:40:57.535Z,2.70
2022-12-20T01:43:26.461Z,2.70
2022-12-20T01:45:53.141Z,2.70
2022-12-20T01:48:26.308Z,2.80
2022-12-20T01:50:53.635Z,2.80
2022-12-20T01:53:22.836Z,2.80
2022-12-20T01:55:49.968Z,2.80
2022-12-20T01:58:19.845Z,2.80
2022-12-20T02:00:47.247Z,2.80
2022-12-20T02:03:15.263Z,2.80
2022-12-20T02:05:47.758Z,2.80
2022-12-20T02:08:17.698Z,2.80
2022-12-20T02:11:07.891Z,2.80
2022-12-20T02:14:08.648Z,2.80
2022-12-20T02:16:53.391Z,2.80
2022-12-20T02:20:00.918Z,2.90
2022-12-20T02:22:53.264Z,2.90
2022-12-20T02:25:57.220Z,2.90
2022-12-20T02:28:55.020Z,2.90
2022-12-20T02:31:27.233Z,2.80
2022-12-20T02:33:57.674Z,2.70
2022-12-20T02:36:25.380Z,2.70
2022-12-20T02:38:52.869Z,2.70
2022-12-20T02:41:27.013Z,2.70
2022-12-20T02:44:17.640Z,2.70
2022-12-20T02:46:45.498Z,2.70
2022-12-20T02:49:16.506Z,2.80
2022-12-20T02:51:45.944Z,2.70
2022-12-20T02:54:13.330Z,2.70
2022-12-20T02:56:47.471Z,2.60
2022-12-20T02:59:19.325Z,2.60
2022-12-20T03:01:56.992Z,2.60
2022-12-20T03:04:27.608Z,2.60
2022-12-20T03:07:00.063Z,2.60
2022-12-20T03:09:26.939Z,2.60
2022-12-20T03:11:53.796Z,2.60
2022-12-20T03:14:20.539Z,2.50
2022-12-20T03:16:47.235Z,2.50
2022-12-20T03:19:13.833Z,2.50
2022-12-20T03:21:40.741Z,2.50
2022-12-20T03:24:07.547Z,2.40
2022-12-20T03:26:34.167Z,2.50
2022-12-20T03:29:00.728Z,2.50
2022-12-20T03:31:27.509Z,2.50
2022-12-20T03:33:54.978Z,2.50
2022-12-20T03:36:23.842Z,2.50
2022-12-20T03:38:51.607Z,2.50
2022-12-20T03:41:19.399Z,2.50
2022-12-20T03:43:45.997Z,2.50
2022-12-20T03:46:12.711Z,2.60
2022-12-20T03:48:39.537Z,2.60
2022-12-20T03:51:06.695Z,2.70
2022-12-20T03:53:33.415Z,2.70
2022-12-20T03:56:00.404Z,2.60
2022-12-20T03:58:27.190Z,2.60
2022-12-20T04:00:53.850Z,2.60
2022-12-20T04:03:20.524Z,2.60
2022-12-20T04:05:47.211Z,2.60
2022-12-20T04:08:13.808Z,2.50
2022-12-20T04:11:00.386Z,2.50
2022-12-20T04:13:26.970Z,2.60
2022-12-20T04:15:59.835Z,2.60
2022-12-20T04:18:27.078Z,2.60
2022-12-20T04:20:54.108Z,2.60
2022-12-20T04:23:20.713Z,2.50
2022-12-20T04:25:47.296Z,2.60
2022-12-20T04:28:13.892Z,2.50
2022-12-20T04:30:40.470Z,2.60
2022-12-20T04:33:07.141Z,2.60
2022-12-20T04:35:33.744Z,2.60
2022-12-20T04:38:00.975Z,2.50
2022-12-20T04:40:27.585Z,2.50
2022-12-20T04:42:54.327Z,2.50
2022-12-20T04:45:20.949Z,2.50
2022-12-20T04:47:47.527Z,2.60
2022-12-20T04:50:14.143Z,2.50
2022-12-20T04:52:59.320Z,2.50
2022-12-20T04:55:25.906Z,2.50
2022-12-20T04:57:52.540Z,2.50
2022-12-20T05:00:19.604Z,2.60
2022-12-20T05:02:46.621Z,2.60
2022-12-20T05:05:14.034Z,2.60
2022-12-20T05:07:40.648Z,2.50
2022-12-20T05:10:07.712Z,2.60
2022-12-20T05:12:34.341Z,2.60
2022-12-20T05:15:01.018Z,2.50
2022-12-20T05:17:27.620Z,2.50
2022-12-20T05:19:54.221Z,2.60
2022-12-20T05:22:39.713Z,2.60
2022-12-20T05:25:25.169Z,2.60
2022-12-20T05:27:51.776Z,2.60
2022-12-20T05:30:18.727Z,2.60
2022-12-20T05:32:45.468Z,2.70
2022-12-20T05:35:12.164Z,2.70
2022-12-20T05:37:38.838Z,2.70
2022-12-20T05:40:06.224Z,2.70
2022-12-20T05:42:33.053Z,2.70
2022-12-20T05:45:00.871Z,2.70
2022-12-20T05:47:28.277Z,2.70
2022-12-20T05:49:55.699Z,2.80
2022-12-20T05:52:22.293Z,2.80
2022-12-20T05:54:48.900Z,2.90
2022-12-20T05:57:16.031Z,3.00
2022-12-20T05:59:42.864Z,3.00
2022-12-20T06:02:10.748Z,3.10
2022-12-20T06:04:38.212Z,3.10
2022-12-20T06:07:05.886Z,3.10
2022-12-20T06:09:33.154Z,3.10
2022-12-20T06:11:59.781Z,3.10
2022-12-20T06:14:26.350Z,3.10
2022-12-20T06:16:53.194Z,3.00
2022-12-20T06:19:21.785Z,3.00
2022-12-20T06:21:48.628Z,3.00
2022-12-20T06:24:15.477Z,3.00
2022-12-20T06:26:42.038Z,2.90
2022-12-20T06:29:13.956Z,3.00
2022-12-20T06:31:40.980Z,2.90
2022-12-20T06:34:07.817Z,3.00
2022-12-20T06:36:34.459Z,3.00
2022-12-20T06:39:06.118Z,3.00
2022-12-20T06:41:36.911Z,3.00
2022-12-20T06:44:03.744Z,3.00
2022-12-20T06:46:30.449Z,3.00
2022-12-20T06:48:57.285Z,3.00
2022-12-20T06:51:23.967Z,3.00
2022-12-20T06:53:50.642Z,3.00
2022-12-20T06:56:17.272Z,3.00
2022-12-20T06:58:46.605Z,3.00
2022-12-20T07:01:13.517Z,3.10
2022-12-20T07:03:40.173Z,3.10
2022-12-20T07:06:06.945Z,3.00
2022-12-20T07:08:33.585Z,3.00
2022-12-20T07:11:05.555Z,3.00
2022-12-20T07:13:32.411Z,3.00
2022-12-20T07:16:00.730Z,3.00
2022-12-20T07:18:27.586Z,3.00
2022-12-20T07:20:54.301Z,3.00
2022-12-20T07:23:20.980Z,3.00
2022-12-20T07:25:57.775Z,3.00
2022-12-20T07:28:26.255Z,3.00
2022-12-20T07:30:53.305Z,3.00
2022-12-20T07:33:20.708Z,3.10
2022-12-20T07:35:53.978Z,3.10
2022-12-20T07:38:21.055Z,3.00
2022-12-20T07:40:47.698Z,3.00
2022-12-20T07:43:14.313Z,3.00
2022-12-20T07:45:40.951Z,3.00
2022-12-20T07:48:13.714Z,3.10
2022-12-20T07:50:42.131Z,3.10
2022-12-20T07:53:10.327Z,3.10
2022-12-20T07:55:40.414Z,3.10
2022-12-20T07:58:09.598Z,3.20
2022-12-20T08:00:37.726Z,3.10
2022-12-20T08:03:28.614Z,3.10
2022-12-20T08:05:57.916Z,3.10
2022-12-20T08:08:24.757Z,3.20
2022-12-20T08:10:52.019Z,3.20
2022-12-20T08:13:18.910Z,3.20
2022-12-20T08:15:45.648Z,3.20
2022-12-20T08:18:12.228Z,3.30
2022-12-20T08:20:38.891Z,3.30
2022-12-20T08:23:05.630Z,3.40
2022-12-20T08:25:41.310Z,3.40
2022-12-20T08:28:09.022Z,3.40
2022-12-20T08:30:35.757Z,3.40
2022-12-20T08:33:02.409Z,3.50
2022-12-20T08:35:29.133Z,3.40
2022-12-20T08:37:56.732Z,3.40
2022-12-20T08:40:23.404Z,3.40
2022-12-20T08:42:49.990Z,3.40
2022-12-20T08:45:16.791Z,3.40
2022-12-20T08:47:43.422Z,3.50
2022-12-20T08:50:10.464Z,3.50
2022-12-20T08:52:37.153Z,3.50
2022-12-20T08:55:05.343Z,3.60
2022-12-20T08:57:32.479Z,3.60
2022-12-20T08:59:59.145Z,3.60
2022-12-20T09:02:28.415Z,3.70
2022-12-20T09:04:55.189Z,3.70
2022-12-20T09:07:21.818Z,3.70
2022-12-20T09:09:48.494Z,3.80
2022-12-20T09:12:15.119Z,3.80
2022-12-20T09:14:42.076Z,3.90
2022-12-20T09:17:08.679Z,3.90
2022-12-20T09:19:35.318Z,4.00
2022-12-20T09:22:01.916Z,4.00
2022-12-20T09:24:28.563Z,4.10
2022-12-20T09:26:55.181Z,4.20
2022-12-20T09:29:28.143Z,4.10
2022-12-20T09:31:56.387Z,4.10
2022-12-20T09:34:23.046Z,4.20
2022-12-20T09:36:49.908Z,4.20
2022-12-20T09:39:16.496Z,4.20
2022-12-20T09:41:44.481Z,4.30
2022-12-20T09:44:14.332Z,4.30
2022-12-20T09:46:42.482Z,4.30
2022-12-20T09:49:16.475Z,4.40
2022-12-20T09:52:20.737Z,4.50
2022-12-20T09:55:14.218Z,4.50
2022-12-20T09:58:01.914Z,4.50
2022-12-20T10:00:30.201Z,4.50
2022-12-20T10:03:06.413Z,4.50
2022-12-20T10:05:47.217Z,4.50
2022-12-20T10:08:23.900Z,4.50
2022-12-20T10:11:04.326Z,4.60
2022-12-20T10:13:59.544Z,4.60
2022-12-20T10:16:42.419Z,4.70
2022-12-20T10:19:26.879Z,4.70
2022-12-20T10:22:03.886Z,4.90
2022-12-20T10:24:35.241Z,4.90
2022-12-20T10:27:17.473Z,5.00
2022-12-20T10:29:44.653Z,5.00
2022-12-20T10:32:17.673Z,5.10
2022-12-20T10:34:51.261Z,5.20
2022-12-20T10:37:18.200Z,5.20
2022-12-20T10:39:48.683Z,5.20
2022-12-20T10:42:36.373Z,5.20
2022-12-20T10:45:03.377Z,5.30
2022-12-20T10:47:38.559Z,5.40
2022-12-20T10:50:14.715Z,5.40
2022-12-20T10:52:41.809Z,5.50
2022-12-20T10:55:38.025Z,5.50
2022-12-20T10:58:28.017Z,5.50
2022-12-20T11:01:06.550Z,5.50
2022-12-20T11:03:33.319Z,5.50
2022-12-20T11:06:04.321Z,5.50
2022-12-20T11:08:49.897Z,5.40
2022-12-20T11:11:23.704Z,5.40
2022-12-20T11:13:52.106Z,5.40
2022-12-20T11:16:33.961Z,5.30
2022-12-20T11:19:06.259Z,5.40
2022-12-20T11:21:55.120Z,5.40
2022-12-20T11:24:35.275Z,5.50
2022-12-20T11:27:23.885Z,5.60
2022-12-20T11:30:15.267Z,5.70
2022-12-20T11:33:05.825Z,5.70
2022-12-20T11:35:52.551Z,5.90
2022-12-20T11:39:03.340Z,5.80
2022-12-20T11:41:57.765Z,5.90
2022-12-20T11:44:49.756Z,6.10
2022-12-20T11:47:33.595Z,6.10
2022-12-20T11:50:32.088Z,6.10
2022-12-20T11:53:40.770Z,6.10
2022-12-20T11:56:13.958Z,6.10
2022-12-20T11:58:55.677Z,6.10
2022-12-20T12:01:32.127Z,6.20
2022-12-20T12:04:05.114Z,6.20
2022-12-20T12:06:41.711Z,6.20
2022-12-20T12:09:36.672Z,6.20
2022-12-20T12:12:17.484Z,6.20
2022-12-20T12:15:00.035Z,6.20
2022-12-20T12:17:36.975Z,6.30
2022-12-20T12:20:22.276Z,6.50
2022-12-20T12:22:53.395Z,6.50
2022-12-20T12:25:20.067Z,6.50
2022-12-20T12:27:46.730Z,6.50
2022-12-20T12:30:15.466Z,6.50
2022-12-20T12:33:00.350Z,6.50
2022-12-20T12:35:50.196Z,6.40
2022-12-20T12:38:33.913Z,6.40
2022-12-20T12:41:26.572Z,6.40
2022-12-20T12:44:17.472Z,6.30
2022-12-20T12:46:45.528Z,6.40
2022-12-20T12:49:17.693Z,6.40
2022-12-20T12:51:51.927Z,6.40
2022-12-20T12:54:24.584Z,6.40
2022-12-20T12:56:53.180Z,6.40
2022-12-20T12:59:47.967Z,6.40
2022-12-20T13:02:14.892Z,6.40
2022-12-20T13:05:06.893Z,6.50
2022-12-20T13:07:33.487Z,6.60
2022-12-20T13:10:02.277Z,6.60
2022-12-20T13:12:40.525Z,6.60
2022-12-20T13:15:22.861Z,6.80
2022-12-20T13:17:54.865Z,6.80
2022-12-20T13:20:28.053Z,6.80
2022-12-20T13:23:10.451Z,6.70
2022-12-20T13:25:44.444Z,6.70
2022-12-20T13:28:21.810Z,6.70
2022-12-20T13:31:09.801Z,6.70
2022-12-20T13:33:41.705Z,6.60
2022-12-20T13:36:11.368Z,6.70
2022-12-20T13:38:55.194Z,6.70
2022-12-20T13:41:35.787Z,6.70
2022-12-20T13:44:14.830Z,6.80
2022-12-20T13:47:12.103Z,6.90
2022-12-20T13:49:40.872Z,6.90
2022-12-20T13:52:25.555Z,6.90
2022-12-20T13:54:57.092Z,6.80
2022-12-20T13:57:28.954Z,6.90
2022-12-20T14:00:05.754Z,7.00
2022-12-20T14:02:40.707Z,6.90
2022-12-20T14:05:19.625Z,6.90
2022-12-20T14:08:13.925Z,6.80
2022-12-20T14:10:40.670Z,6.80
2022-12-20T14:13:27.602Z,6.80
2022-12-20T14:15:56.061Z,6.70
2022-12-20T14:18:26.493Z,6.70
2022-12-20T14:21:03.631Z,6.70
2022-12-20T14:23:40.876Z,6.70
2022-12-20T14:26:12.364Z,6.80
2022-12-20T14:28:44.270Z,6.80
2022-12-20T14:31:33.882Z,6.80
2022-12-20T14:34:12.379Z,6.80
2022-12-20T14:36:44.988Z,6.80
2022-12-20T14:39:32.584Z,6.70
2022-12-20T14:42:06.718Z,6.70
2022-12-20T14:44:34.897Z,6.70
2022-12-20T14:47:16.491Z,7.00
2022-12-20T14:49:54.047Z,7.20
2022-12-20T14:52:30.371Z,7.10
2022-12-20T14:55:07.760Z,6.90
2022-12-20T14:57:35.212Z,6.70
2022-12-20T15:00:24.086Z,6.70
2022-12-20T15:02:56.747Z,6.60
2022-12-20T15:05:36.114Z,6.50
2022-12-20T15:08:18.500Z,6.40
2022-12-20T15:10:57.393Z,6.40
2022-12-20T15:13:42.421Z,6.30
2022-12-20T15:16:18.469Z,6.30
2022-12-20T15:18:46.389Z,6.30
2022-12-20T15:21:38.292Z,6.30
2022-12-20T15:24:09.754Z,6.30
2022-12-20T15:26:37.330Z,6.30
2022-12-20T15:29:04.463Z,6.30
2022-12-20T15:31:34.796Z,6.30
2022-12-20T15:34:07.039Z,6.20
2022-12-20T15:36:33.894Z,6.30
2022-12-20T15:39:12.391Z,6.30
2022-12-20T15:41:42.865Z,6.30
2022-12-20T15:44:18.920Z,6.20
2022-12-20T15:46:45.727Z,6.20
2022-12-20T15:49:17.829Z,6.20
2022-12-20T15:51:46.485Z,6.10
2022-12-20T15:54:27.377Z,6.10
2022-12-20T15:56:55.627Z,6.10
2022-12-20T15:59:58.313Z,6.00
2022-12-20T16:02:22.282Z,6.00
2022-12-20T16:04:49.044Z,6.00
2022-12-20T16:07:16.299Z,5.90
2022-12-20T16:09:43.119Z,5.90
2022-12-20T16:12:25.202Z,5.90
2022-12-20T16:14:51.826Z,5.90
2022-12-20T16:17:18.450Z,5.90
2022-12-20T16:19:46.019Z,5.90
2022-12-20T16:22:18.451Z,5.90
2022-12-20T16:24:45.837Z,5.90
2022-12-20T16:27:12.512Z,5.90
2022-12-20T16:29:39.157Z,5.90
2022-12-20T16:32:24.111Z,5.90
2022-12-20T16:34:51.465Z,5.90
2022-12-20T16:37:18.124Z,5.80
2022-12-20T16:39:44.940Z,5.80
2022-12-20T16:42:17.279Z,5.90
2022-12-20T16:44:45.295Z,5.80
2022-12-20T16:47:13.570Z,5.80
2022-12-20T16:49:47.174Z,5.80
2022-12-20T16:52:19.038Z,5.80
2022-12-20T16:54:45.706Z,5.70
2022-12-20T16:57:12.497Z,5.70
2022-12-20T16:59:39.138Z,5.70
2022-12-20T17:02:20.864Z,5.70
2022-12-20T17:04:48.005Z,5.60
2022-12-20T17:07:15.091Z,5.60
2022-12-20T17:12:25.606Z,5.60
2022-12-20T17:14:52.352Z,5.60
2022-12-20T17:17:18.919Z,5.60
2022-12-20T17:19:45.539Z,5.60
2022-12-20T17:24:57.154Z,5.60
2022-12-20T17:27:23.772Z,5.60
2022-12-20T17:29:51.040Z,5.60
2022-12-20T17:32:21.579Z,5.70
2022-12-20T17:34:48.195Z,5.70
2022-12-20T17:37:14.850Z,5.70
2022-12-20T17:39:41.647Z,5.70
2022-12-20T17:42:12.850Z,5.70
2022-12-20T17:44:39.420Z,5.70
2022-12-20T17:47:06.513Z,5.60
2022-12-20T17:49:33.132Z,5.70
2022-12-20T17:51:59.890Z,5.70
2022-12-20T17:54:30.778Z,5.80
2022-12-20T17:57:01.658Z,5.80
2022-12-20T17:59:29.326Z,5.70
2022-12-20T18:01:56.202Z,5.70
2022-12-20T18:04:23.277Z,5.70
2022-12-20T18:06:49.938Z,5.70
2022-12-20T18:09:19.490Z,5.70
2022-12-20T18:11:46.623Z,5.60
2022-12-20T18:14:13.706Z,5.70
2022-12-20T18:16:40.703Z,5.70
2022-12-20T18:19:08.999Z,5.70
2022-12-20T18:21:35.663Z,5.60
2022-12-20T18:24:02.287Z,5.70
2022-12-20T18:26:30.742Z,5.70
2022-12-20T18:29:02.284Z,5.70
2022-12-20T18:31:31.214Z,5.70
2022-12-20T18:33:59.061Z,5.80
2022-12-20T18:36:30.506Z,5.80
2022-12-20T18:38:59.418Z,5.80
2022-12-20T18:41:28.828Z,5.80
2022-12-20T18:44:00.900Z,5.70
2022-12-20T18:46:28.184Z,5.70
2022-12-20T18:48:56.973Z,5.70
2022-12-20T18:51:26.207Z,5.60
2022-12-20T18:53:55.159Z,5.70
2022-12-20T18:56:30.802Z,5.70
2022-12-20T18:59:04.583Z,5.60
2022-12-20T19:01:37.660Z,5.60
2022-12-20T19:04:06.222Z,5.70
2022-12-20T19:06:33.409Z,5.60
2022-12-20T19:09:01.265Z,5.60
2022-12-20T19:11:28.975Z,5.50
2022-12-20T19:13:56.253Z,5.50
2022-12-20T19:16:32.508Z,5.50
2022-12-20T19:19:00.936Z,5.50
2022-12-20T19:21:30.577Z,5.50
2022-12-20T19:23:59.470Z,5.40
2022-12-20T19:26:28.173Z,5.40
2022-12-20T19:28:55.851Z,5.40
2022-12-20T19:31:27.613Z,5.40
2022-12-20T19:34:07.173Z,5.40
2022-12-20T19:36:39.672Z,5.50
2022-12-20T19:39:08.257Z,5.60
2022-12-20T19:41:35.836Z,5.50
2022-12-20T19:44:03.361Z,5.50
2022-12-20T19:46:30.465Z,5.50
2022-12-20T19:48:58.594Z,5.50
2022-12-20T19:51:26.217Z,5.50
2022-12-20T19:53:54.103Z,5.50
2022-12-20T19:56:26.487Z,5.50
2022-12-20T19:58:54.085Z,5.50
2022-12-20T20:01:25.239Z,5.50
2022-12-20T20:03:53.251Z,5.50
2022-12-20T20:06:20.712Z,5.50
2022-12-20T20:08:49.497Z,5.50
2022-12-20T20:11:17.537Z,5.50
2022-12-20T20:13:44.399Z,5.50
2022-12-20T20:16:14.301Z,5.50
2022-12-20T20:18:46.004Z,5.50
2022-12-20T20:21:17.815Z,5.50
2022-12-20T20:23:44.524Z,5.50
2022-12-20T20:26:14.923Z,5.50
2022-12-20T20:28:44.777Z,5.50
2022-12-20T20:31:13.826Z,5.40
2022-12-20T20:33:40.952Z,5.40
2022-12-20T20:36:08.088Z,5.40
2022-12-20T20:38:35.201Z,5.40
2022-12-20T20:41:02.154Z,5.40
2022-12-20T20:43:29.654Z,5.40
2022-12-20T20:45:56.965Z,5.40
2022-12-20T20:48:23.615Z,5.40
2022-12-20T20:50:50.429Z,5.30
2022-12-20T20:53:17.047Z,5.20
2022-12-20T20:55:44.044Z,5.20
2022-12-20T20:58:10.675Z,5.20
2022-12-20T21:00:37.486Z,5.20
2022-12-20T21:03:04.991Z,5.20
2022-12-20T21:06:22.435Z,5.20
2022-12-20T21:08:21.653Z,5.20
2022-12-20T21:10:50.283Z,5.20
2022-12-20T21:13:17.445Z,5.20
2022-12-20T21:15:44.512Z,5.20
2022-12-20T21:18:11.952Z,5.20
2022-12-20T21:20:39.405Z,5.20
2022-12-20T21:23:06.601Z,5.20
2022-12-20T21:25:33.321Z,5.20
2022-12-20T21:27:59.947Z,5.20
2022-12-20T21:30:26.594Z,5.20
2022-12-20T21:32:53.192Z,5.20
2022-12-20T21:35:20.315Z,5.20
2022-12-20T21:37:47.039Z,5.20
2022-12-20T21:40:13.898Z,5.30
2022-12-20T21:42:40.514Z,5.40
2022-12-20T21:45:07.833Z,5.30
2022-12-20T21:47:35.662Z,5.40
2022-12-20T21:50:02.317Z,5.40
2022-12-20T21:52:28.967Z,5.40
2022-12-20T21:54:55.690Z,5.40
2022-12-20T21:57:22.285Z,5.30
2022-12-20T21:59:48.938Z,5.30
2022-12-20T22:02:15.760Z,5.40
2022-12-20T22:04:42.431Z,5.40
2022-12-20T22:07:09.250Z,5.40
2022-12-20T22:09:35.809Z,5.40
2022-12-20T22:12:02.425Z,5.50
2022-12-20T22:14:29.094Z,5.50
2022-12-20T22:16:55.719Z,5.40
2022-12-20T22:19:22.512Z,5.40
2022-12-20T22:21:55.660Z,5.40
2022-12-20T22:24:24.483Z,5.40
2022-12-20T22:26:51.167Z,5.40
2022-12-20T22:29:17.860Z,5.40
2022-12-20T22:31:44.591Z,5.40
2022-12-20T22:34:11.562Z,5.40
2022-12-20T22:36:38.352Z,5.40
2022-12-20T22:39:05.065Z,5.40
2022-12-20T22:41:34.671Z,5.40
2022-12-20T22:44:02.221Z,5.40
2022-12-20T22:46:29.716Z,5.40
2022-12-20T22:49:01.208Z,5.40
2022-12-20T22:51:30.754Z,5.40
2022-12-20T22:53:58.318Z,5.50
2022-12-20T22:56:25.756Z,5.50
2022-12-20T22:58:52.386Z,5.50
2022-12-20T23:01:20.218Z,5.50
2022-12-20T23:03:47.338Z,5.50
2022-12-20T23:06:16.171Z,5.50
2022-12-20T23:08:43.549Z,5.50
2022-12-20T23:11:34.372Z,5.50
2022-12-20T23:14:19.562Z,5.50
2022-12-20T23:16:46.304Z,5.50
2022-12-20T23:19:13.021Z,5.50
2022-12-20T23:21:58.444Z,5.60
2022-12-20T23:24:25.151Z,5.60
2022-12-20T23:26:51.754Z,5.60
2022-12-20T23:29:18.352Z,5.60
2022-12-20T23:31:45.014Z,5.60
2022-12-20T23:34:11.636Z,5.50
2022-12-20T23:36:38.275Z,5.50
2022-12-20T23:39:05.450Z,5.60
2022-12-20T23:41:32.202Z,5.50
2022-12-20T23:43:59.313Z,5.50
2022-12-20T23:46:26.652Z,5.50
2022-12-20T23:48:53.901Z,5.60
2022-12-20T23:51:21.714Z,5.60
2022-12-20T23:53:50.285Z,5.60
2022-12-20T23:56:20.236Z,5.60
2022-12-20T23:58:52.684Z,5.50
